Time;durP1;ratioP1;P1;durP2;ratioP2;P2;SDS_P1;SDS_P2;PMS_P1;PMS_P2;Temp;Humidity;BMP_temperature;BMP_pressure;BME280_temperature;BME280_humidity;BME280_pressure;Samples;Min_cycle;Max_cycle;Signal;HPM_P1;HPM_P2
2024/03/31 00:00:09;;;;;;;7.10;2.07;;;;;;;;;;6256439;28;20108;-77
2024/03/31 00:03:09;;;;;;;10.90;1.90;;;;;;;;;;6274281;28;20067;-77
2024/03/31 00:06:11;;;;;;;10.48;2.22;;;;;;;;;;6264617;28;20033;-77
2024/03/31 00:09:11;;;;;;;8.57;2.45;;;;;;;;;;6225371;28;20030;-76
2024/03/31 00:12:18;;;;;;;9.10;1.87;;;;;;;;;;6226230;28;20380;-77
2024/03/31 00:15:18;;;;;;;7.40;1.73;;;;;;;;;;6243956;28;20532;-76
2024/03/31 00:18:18;;;;;;;11.80;2.43;;;;;;;;;;6249180;28;20033;-76
2024/03/31 00:21:18;;;;;;;12.43;2.40;;;;;;;;;;6250112;28;20021;-77
2024/03/31 00:24:18;;;;;;;;;;;;;;;;;;6249637;28;20429;-77
2024/03/31 00:27:19;;;;;;;9.90;1.95;;;;;;;;;;6248156;28;19948;-77
2024/03/31 00:30:19;;;;;;;10.73;2.20;;;;;;;;;;6249733;28;20471;-77
2024/03/31 00:33:19;;;;;;;10.43;2.37;;;;;;;;;;6246546;28;20481;-76
2024/03/31 00:36:19;;;;;;;9.73;2.20;;;;;;;;;;6248272;28;20516;-77
2024/03/31 00:39:19;;;;;;;;;;;;;;;;;;6268486;28;20478;-77
2024/03/31 00:42:20;;;;;;;12.38;2.17;;;;;;;;;;6249996;28;19972;-77
2024/03/31 00:45:20;;;;;;;11.10;2.47;;;;;;;;;;6249885;28;20489;-76
2024/03/31 00:48:20;;;;;;;;;;;;;;;;;;6247062;28;20151;-76
2024/03/31 00:51:21;;;;;;;7.43;1.90;;;;;;;;;;6249502;28;20012;-77
2024/03/31 00:54:21;;;;;;;8.63;1.97;;;;;;;;;;6255413;28;20108;-76
2024/03/31 00:57:21;;;;;;;;;;;;;;;;;;6270307;28;20032;-77
2024/03/31 01:00:21;;;;;;;10.52;2.03;;;;;;;;;;6274283;28;19955;-76
2024/03/31 01:03:25;;;;;;;6.25;2.42;;;;;;;;;;6273030;28;20078;-76
2024/03/31 01:06:26;;;;;;;7.82;2.63;;;;;;;;;;6249780;28;20030;-77
2024/03/31 01:09:27;;;;;;;9.07;2.63;;;;;;;;;;6265909;28;20040;-77
2024/03/31 01:12:27;;;;;;;9.45;2.78;;;;;;;;;;6268798;28;20686;-77
2024/03/31 01:15:27;;;;;;;9.17;2.63;;;;;;;;;;6247035;28;20036;-77
2024/03/31 01:18:27;;;;;;;9.73;3.10;;;;;;;;;;6247795;28;20104;-76
2024/03/31 01:21:29;;;;;;;9.07;2.80;;;;;;;;;;6247091;28;20799;-77
2024/03/31 01:24:29;;;;;;;9.50;2.67;;;;;;;;;;6247821;28;20048;-77
2024/03/31 01:27:29;;;;;;;9.87;2.63;;;;;;;;;;6247566;28;20025;-77
2024/03/31 01:30:29;;;;;;;;;;;;;;;;;;6249550;28;20490;-77
2024/03/31 01:33:30;;;;;;;9.88;2.53;;;;;;;;;;6247506;28;19905;-77
2024/03/31 01:36:30;;;;;;;9.63;2.47;;;;;;;;;;6247541;28;20506;-77
2024/03/31 01:39:30;;;;;;;9.43;3.17;;;;;;;;;;6247285;28;20398;-77
2024/03/31 01:42:30;;;;;;;;;;;;;;;;;;6249061;28;20408;-77
2024/03/31 01:45:31;;;;;;;7.60;1.98;;;;;;;;;;6259582;28;19909;-76
2024/03/31 01:48:31;;;;;;;14.45;2.80;;;;;;;;;;6258527;28;20465;-76
2024/03/31 01:51:31;;;;;;;10.83;2.80;;;;;;;;;;6248771;28;20442;-77
2024/03/31 01:54:33;;;;;;;;;;;;;;;;;;6245528;28;20529;-76
2024/03/31 01:57:33;;;;;;;9.73;2.78;;;;;;;;;;6248802;28;19924;-77
2024/03/31 02:00:33;;;;;;;;;;;;;;;;;;6248811;28;20359;-77
2024/03/31 02:03:33;;;;;;;8.63;2.08;;;;;;;;;;6247382;28;19905;-76
2024/03/31 02:06:34;;;;;;;12.70;2.53;;;;;;;;;;6247513;28;20536;-78
2024/03/31 02:09:34;;;;;;;7.20;2.43;;;;;;;;;;6241133;28;20594;-76
2024/03/31 02:12:34;;;;;;;9.23;3.30;;;;;;;;;;6256381;28;20474;-76
2024/03/31 02:15:34;;;;;;;;;;;;;;;;;;6263604;28;20481;-77
2024/03/31 02:18:34;;;;;;;14.20;2.87;;;;;;;;;;6246496;28;20251;-76
2024/03/31 02:21:35;;;;;;;;;;;;;;;;;;6250366;28;20017;-76
2024/03/31 02:24:35;;;;;;;9.10;2.30;;;;;;;;;;6245653;28;19905;-77
2024/03/31 02:27:35;;;;;;;9.30;2.57;;;;;;;;;;6246554;28;20458;-77
2024/03/31 02:30:35;;;;;;;8.87;2.40;;;;;;;;;;6248230;28;20474;-76
2024/03/31 02:33:36;;;;;;;8.60;2.47;;;;;;;;;;6246694;28;20344;-77
2024/03/31 02:36:36;;;;;;;7.60;2.50;;;;;;;;;;6247206;28;20085;-76
2024/03/31 02:39:36;;;;;;;8.97;2.83;;;;;;;;;;6246662;28;20080;-77
2024/03/31 02:42:37;;;;;;;;;;;;;;;;;;6260645;28;20017;-77
2024/03/31 02:45:37;;;;;;;7.25;2.17;;;;;;;;;;6249296;28;19916;-76
2024/03/31 02:48:37;;;;;;;9.40;2.87;;;;;;;;;;6247221;28;20028;-77
2024/03/31 02:51:37;;;;;;;9.57;2.67;;;;;;;;;;6249809;28;20040;-77
2024/03/31 02:54:37;;;;;;;7.13;2.20;;;;;;;;;;6272460;28;20078;-76
2024/03/31 02:57:38;;;;;;;9.10;2.57;;;;;;;;;;6246709;28;20048;-76
2024/03/31 03:00:38;;;;;;;;;;;;;;;;;;6247080;28;20037;-76
2024/03/31 03:03:38;;;;;;;12.27;2.45;;;;;;;;;;6247173;28;19909;-77
2024/03/31 03:06:38;;;;;;;7.23;2.30;;;;;;;;;;6235703;28;20022;-76
2024/03/31 03:09:39;;;;;;;10.03;2.80;;;;;;;;;;6233923;28;20029;-76
2024/03/31 03:12:39;;;;;;;11.17;2.37;;;;;;;;;;6248368;28;20740;-76
2024/03/31 03:15:39;;;;;;;10.23;2.53;;;;;;;;;;6242048;28;20034;-76
2024/03/31 03:18:39;;;;;;;8.90;2.73;;;;;;;;;;6234195;28;20029;-78
2024/03/31 03:21:40;;;;;;;8.67;2.60;;;;;;;;;;6252130;28;20116;-78
2024/03/31 03:24:40;;;;;;;9.20;2.67;;;;;;;;;;6251409;28;20124;-78
2024/03/31 03:27:40;;;;;;;9.33;2.80;;;;;;;;;;6251995;28;20037;-77
2024/03/31 03:30:40;;;;;;;7.50;2.30;;;;;;;;;;6250961;28;20712;-78
2024/03/31 03:33:41;;;;;;;7.27;2.30;;;;;;;;;;6241193;28;20479;-78
2024/03/31 03:36:41;;;;;;;10.97;2.43;;;;;;;;;;6273573;28;20537;-78
2024/03/31 03:39:42;;;;;;;8.77;2.33;;;;;;;;;;6225843;28;20046;-78
2024/03/31 03:42:42;;;;;;;10.63;2.60;;;;;;;;;;6237852;28;20032;-78
2024/03/31 03:45:42;;;;;;;8.07;2.33;;;;;;;;;;6250073;28;20026;-79
2024/03/31 03:48:42;;;;;;;5.20;2.30;;;;;;;;;;6248338;28;20025;-78
2024/03/31 03:51:43;;;;;;;9.77;2.50;;;;;;;;;;6249323;28;20021;-78
2024/03/31 03:54:43;;;;;;;7.97;2.47;;;;;;;;;;6249866;28;20033;-78
2024/03/31 03:57:43;;;;;;;8.77;2.42;;;;;;;;;;6250956;28;20029;-78
2024/03/31 04:00:43;;;;;;;7.17;2.07;;;;;;;;;;6247368;28;20032;-78
2024/03/31 04:03:44;;;;;;;8.43;2.07;;;;;;;;;;6235578;28;20031;-78
2024/03/31 04:06:45;;;;;;;6.88;2.15;;;;;;;;;;6227702;28;20029;-78
2024/03/31 04:09:45;;;;;;;6.50;2.00;;;;;;;;;;6240206;28;20067;-78
2024/03/31 04:12:45;;;;;;;7.87;2.00;;;;;;;;;;6255431;28;20029;-78
2024/03/31 04:15:55;;;;;;;8.50;2.43;;;;;;;;;;6260114;28;20025;-78
2024/03/31 04:18:55;;;;;;;8.30;2.22;;;;;;;;;;6230675;28;20036;-78
2024/03/31 04:21:56;;;;;;;9.07;2.30;;;;;;;;;;6242206;28;20029;-78
2024/03/31 04:24:56;;;;;;;11.87;2.60;;;;;;;;;;6249365;28;20400;-78
2024/03/31 04:27:56;;;;;;;6.60;1.83;;;;;;;;;;6249632;28;20342;-76
2024/03/31 04:30:56;;;;;;;10.03;2.10;;;;;;;;;;6251333;28;20470;-76
2024/03/31 04:33:57;;;;;;;7.07;2.40;;;;;;;;;;6254343;28;20485;-77
2024/03/31 04:36:57;;;;;;;7.47;2.00;;;;;;;;;;6249500;28;20141;-77
2024/03/31 04:39:57;;;;;;;7.87;2.13;;;;;;;;;;6251761;28;20116;-77
2024/03/31 04:42:57;;;;;;;4.20;2.07;;;;;;;;;;6248642;28;20379;-77
2024/03/31 04:46:05;;;;;;;4.63;1.80;;;;;;;;;;6249950;28;20028;-76
2024/03/31 04:49:05;;;;;;;9.70;1.85;;;;;;;;;;6234161;28;20093;-77
2024/03/31 04:52:05;;;;;;;8.23;2.10;;;;;;;;;;6273803;28;20465;-76
2024/03/31 04:55:05;;;;;;;8.25;2.38;;;;;;;;;;6264235;28;20497;-77
2024/03/31 04:58:06;;;;;;;7.00;1.80;;;;;;;;;;6250784;28;20079;-76
2024/03/31 05:01:06;;;;;;;12.93;2.60;;;;;;;;;;6248033;28;20470;-77
2024/03/31 05:04:06;;;;;;;7.20;1.63;;;;;;;;;;6247345;28;20440;-77
2024/03/31 05:07:07;;;;;;;7.80;2.20;;;;;;;;;;6246442;28;20629;-77
2024/03/31 05:10:07;;;;;;;9.83;1.83;;;;;;;;;;6248991;28;20093;-76
2024/03/31 05:13:07;;;;;;;8.33;2.10;;;;;;;;;;6256629;28;20033;-77
2024/03/31 05:16:08;;;;;;;8.83;2.03;;;;;;;;;;6262368;28;20025;-76
2024/03/31 05:19:08;;;;;;;;;;;;;;;;;;6249242;28;20033;-77
2024/03/31 05:22:09;;;;;;;4.07;1.70;;;;;;;;;;6246582;28;19909;-77
2024/03/31 05:25:09;;;;;;;6.20;1.77;;;;;;;;;;6248605;28;20032;-76
2024/03/31 05:28:09;;;;;;;6.10;1.87;;;;;;;;;;6259369;28;20029;-76
2024/03/31 05:31:09;;;;;;;11.23;2.67;;;;;;;;;;6248983;28;20026;-77
2024/03/31 05:34:10;;;;;;;7.83;1.93;;;;;;;;;;6247097;28;20017;-76
2024/03/31 05:37:10;;;;;;;9.00;1.90;;;;;;;;;;6249397;28;20049;-78
2024/03/31 05:40:10;;;;;;;4.30;1.70;;;;;;;;;;6260672;28;20386;-79
2024/03/31 05:43:11;;;;;;;8.13;1.80;;;;;;;;;;6248678;28;20052;-78
2024/03/31 05:46:11;;;;;;;5.22;1.85;;;;;;;;;;6248513;28;20151;-78
2024/03/31 05:49:11;;;;;;;6.70;2.10;;;;;;;;;;6262590;28;20433;-78
2024/03/31 05:52:11;;;;;;;4.17;1.83;;;;;;;;;;6256666;28;20029;-78
2024/03/31 05:55:12;;;;;;;9.70;1.67;;;;;;;;;;6250231;28;20347;-78
2024/03/31 05:58:12;;;;;;;7.27;1.93;;;;;;;;;;6247545;28;20064;-79
2024/03/31 06:01:12;;;;;;;7.43;2.03;;;;;;;;;;6247960;28;20024;-79
2024/03/31 06:04:12;;;;;;;7.17;1.60;;;;;;;;;;6242006;28;20470;-80
2024/03/31 06:07:13;;;;;;;6.87;1.90;;;;;;;;;;6246680;28;20458;-79
2024/03/31 06:10:13;;;;;;;6.93;2.13;;;;;;;;;;6272830;28;20540;-77
2024/03/31 06:13:13;;;;;;;8.77;1.83;;;;;;;;;;6272774;28;20442;-77
2024/03/31 06:16:13;;;;;;;6.37;1.97;;;;;;;;;;6258815;28;20794;-77
2024/03/31 06:19:14;;;;;;;6.87;1.73;;;;;;;;;;6254968;28;20552;-77
2024/03/31 06:22:14;;;;;;;7.60;2.43;;;;;;;;;;6247045;28;20477;-77
2024/03/31 06:25:15;;;;;;;6.38;1.88;;;;;;;;;;6246254;28;20406;-77
2024/03/31 06:28:15;;;;;;;5.47;1.57;;;;;;;;;;6247459;28;20461;-78
2024/03/31 06:31:15;;;;;;;4.53;1.40;;;;;;;;;;6268269;28;20027;-78
2024/03/31 06:34:15;;;;;;;6.17;1.50;;;;;;;;;;6271383;28;20021;-78
2024/03/31 06:37:17;;;;;;;5.13;1.40;;;;;;;;;;6256174;28;20040;-78
2024/03/31 06:40:17;;;;;;;5.85;1.48;;;;;;;;;;6247702;28;20022;-76
2024/03/31 06:43:17;;;;;;;6.63;1.57;;;;;;;;;;6249091;28;20426;-78
2024/03/31 06:46:18;;;;;;;5.30;1.20;;;;;;;;;;6265855;28;20426;-77
2024/03/31 06:49:18;;;;;;;3.97;1.40;;;;;;;;;;6274497;28;20496;-78
2024/03/31 06:52:18;;;;;;;8.53;1.80;;;;;;;;;;6256275;28;20017;-79
2024/03/31 06:55:18;;;;;;;7.50;1.37;;;;;;;;;;6245979;28;20432;-77
2024/03/31 06:58:19;;;;;;;3.80;1.17;;;;;;;;;;6249079;28;20028;-78
2024/03/31 07:01:19;;;;;;;6.80;1.77;;;;;;;;;;6237830;28;20092;-77
2024/03/31 07:04:19;;;;;;;5.80;1.37;;;;;;;;;;6247545;28;20023;-79
2024/03/31 07:07:19;;;;;;;3.58;1.45;;;;;;;;;;6249494;28;20049;-79
2024/03/31 07:10:20;;;;;;;4.10;1.33;;;;;;;;;;6248213;28;20032;-79
2024/03/31 07:13:20;;;;;;;;;;;;;;;;;;6249467;28;20108;-79
2024/03/31 07:16:20;;;;;;;4.50;1.10;;;;;;;;;;6252124;28;20015;-79
2024/03/31 07:19:20;;;;;;;6.27;1.23;;;;;;;;;;6250191;28;20065;-79
2024/03/31 07:22:20;;;;;;;;;;;;;;;;;;6250337;28;20057;-79
2024/03/31 07:25:21;;;;;;;4.70;1.25;;;;;;;;;;6252074;28;20361;-82
2024/03/31 07:28:21;;;;;;;7.30;1.53;;;;;;;;;;6249806;28;20029;-79
2024/03/31 07:31:22;;;;;;;4.50;1.67;;;;;;;;;;6252463;28;20771;-79
2024/03/31 07:34:22;;;;;;;;;;;;;;;;;;6237947;28;20484;-79
2024/03/31 07:37:22;;;;;;;6.78;1.10;;;;;;;;;;6251929;28;19979;-81
2024/03/31 07:40:22;;;;;;;;;;;;;;;;;;6251995;28;20458;-78
2024/03/31 07:43:24;;;;;;;6.82;1.08;;;;;;;;;;6259144;28;19940;-79
2024/03/31 07:46:24;;;;;;;7.78;1.33;;;;;;;;;;6263857;28;20465;-78
2024/03/31 07:49:24;;;;;;;;;;;;;;;;;;6247597;28;20057;-80
2024/03/31 07:52:24;;;;;;;5.03;1.20;;;;;;;;;;6242403;28;19913;-77
2024/03/31 07:55:24;;;;;;;;;;;;;;;;;;6248130;28;20473;-77
2024/03/31 07:58:25;;;;;;;7.65;1.10;;;;;;;;;;6239874;28;20069;-78
2024/03/31 08:01:25;;;;;;;;;;;;;;;;;;6247196;28;20026;-78
2024/03/31 08:04:25;;;;;;;9.15;0.98;;;;;;;;;;6234769;28;19919;-78
2024/03/31 08:07:25;;;;;;;;;;;;;;;;;;6263400;28;20036;-77
2024/03/31 08:10:25;;;;;;;4.47;0.88;;;;;;;;;;6250526;28;19905;-77
2024/03/31 08:13:26;;;;;;;;;;;;;;;;;;6243062;28;20021;-76
2024/03/31 08:16:26;;;;;;;4.97;1.20;;;;;;;;;;6239875;28;19909;-77
2024/03/31 08:19:26;;;;;;;;;;;;;;;;;;6247150;28;20026;-77
2024/03/31 08:22:26;;;;;;;6.10;1.20;;;;;;;;;;6240863;28;19913;-77
2024/03/31 08:25:26;;;;;;;;;;;;;;;;;;6234558;28;20033;-76
2024/03/31 08:28:27;;;;;;;7.75;1.27;;;;;;;;;;6236622;28;19905;-76
2024/03/31 08:31:27;;;;;;;5.32;1.25;;;;;;;;;;6250168;28;20466;-77
2024/03/31 08:34:27;;;;;;;7.80;1.73;;;;;;;;;;6236538;28;20038;-77
2024/03/31 08:37:27;;;;;;;;;;;;;;;;;;6239205;28;20292;-77
2024/03/31 08:40:31;;;;;;;5.07;1.10;;;;;;;;;;6238654;28;20437;-77
2024/03/31 08:43:35;;;;;;;7.65;1.60;;;;;;;;;;6249109;28;20029;-76
2024/03/31 08:46:35;;;;;;;8.30;1.67;;;;;;;;;;6248946;28;20061;-82
2024/03/31 08:49:35;;;;;;;;;;;;;;;;;;6248983;28;20021;-84
2024/03/31 08:52:36;;;;;;;6.95;1.63;;;;;;;;;;6246592;28;19912;-84
2024/03/31 08:55:36;;;;;;;8.02;1.50;;;;;;;;;;6248888;28;20385;-82
2024/03/31 08:58:39;;;;;;;8.65;1.80;;;;;;;;;;6249998;28;20030;-75
2024/03/31 09:01:39;;;;;;;7.70;1.65;;;;;;;;;;6241295;28;20025;-76
2024/03/31 09:04:40;;;;;;;7.78;1.90;;;;;;;;;;6245723;28;20096;-76
2024/03/31 09:07:40;;;;;;;4.72;1.40;;;;;;;;;;6247828;28;20033;-76
2024/03/31 09:10:40;;;;;;;5.45;1.40;;;;;;;;;;6249192;28;20382;-78
2024/03/31 09:13:41;;;;;;;5.45;1.60;;;;;;;;;;6249433;28;20083;-78
2024/03/31 09:16:46;;;;;;;8.20;1.55;;;;;;;;;;6249721;28;20056;-78
2024/03/31 09:19:48;;;;;;;9.05;1.98;;;;;;;;;;6244777;28;20046;-77
2024/03/31 09:22:48;;;;;;;6.00;1.45;;;;;;;;;;6247286;28;20030;-77
2024/03/31 09:25:49;;;;;;;11.15;1.80;;;;;;;;;;6246800;28;20020;-77
2024/03/31 09:28:49;;;;;;;11.50;1.73;;;;;;;;;;6247644;28;20022;-77
2024/03/31 09:31:50;;;;;;;9.05;1.90;;;;;;;;;;6248374;28;20296;-78
2024/03/31 09:34:50;;;;;;;10.38;1.80;;;;;;;;;;6241608;28;20529;-77
2024/03/31 09:37:51;;;;;;;10.18;2.10;;;;;;;;;;6252365;28;20041;-78
2024/03/31 09:40:52;;;;;;;12.02;2.30;;;;;;;;;;6231478;28;20418;-77
2024/03/31 09:43:53;;;;;;;13.40;2.10;;;;;;;;;;6231501;28;20022;-79
2024/03/31 09:46:53;;;;;;;12.50;2.40;;;;;;;;;;6246035;28;20026;-78
2024/03/31 09:50:03;;;;;;;10.68;2.55;;;;;;;;;;6254051;28;20033;-78
2024/03/31 09:53:04;;;;;;;10.45;2.05;;;;;;;;;;6259017;28;20474;-79
2024/03/31 09:56:07;;;;;;;7.18;1.85;;;;;;;;;;6246790;28;20485;-75
2024/03/31 09:59:09;;;;;;;7.88;1.92;;;;;;;;;;6247453;28;20029;-75
2024/03/31 10:02:10;;;;;;;10.10;1.77;;;;;;;;;;6241771;28;20037;-75
2024/03/31 10:05:16;;;;;;;9.05;1.77;;;;;;;;;;6248017;28;20033;-75
2024/03/31 10:08:16;;;;;;;10.65;2.25;;;;;;;;;;6248264;28;20033;-75
2024/03/31 10:11:17;;;;;;;10.25;1.55;;;;;;;;;;6262875;28;20033;-80
2024/03/31 10:14:19;;;;;;;9.50;2.08;;;;;;;;;;6254047;28;20040;-78
2024/03/31 10:17:19;;;;;;;8.27;1.85;;;;;;;;;;6258577;28;20025;-80
2024/03/31 10:20:20;;;;;;;8.02;2.05;;;;;;;;;;6260581;28;20033;-77
2024/03/31 10:23:21;;;;;;;10.43;1.80;;;;;;;;;;6270865;28;20026;-77
2024/03/31 10:26:22;;;;;;;10.50;1.90;;;;;;;;;;6252725;28;20056;-78
2024/03/31 10:29:23;;;;;;;9.95;2.10;;;;;;;;;;6252735;28;20025;-79
2024/03/31 10:32:23;;;;;;;7.85;1.95;;;;;;;;;;6264384;28;20033;-80
2024/03/31 10:35:24;;;;;;;11.13;1.87;;;;;;;;;;6269594;28;20044;-82
2024/03/31 10:38:25;;;;;;;8.65;2.13;;;;;;;;;;6265676;28;20327;-79
2024/03/31 10:41:25;;;;;;;6.45;1.90;;;;;;;;;;6256833;28;20039;-82
2024/03/31 10:44:26;;;;;;;7.40;2.03;;;;;;;;;;6250832;28;20524;-78
2024/03/31 10:47:28;;;;;;;9.18;2.15;;;;;;;;;;6250944;28;20028;-78
2024/03/31 10:50:29;;;;;;;11.18;2.22;;;;;;;;;;6252555;28;20449;-77
2024/03/31 10:53:29;;;;;;;14.23;2.30;;;;;;;;;;6269208;28;20035;-79
2024/03/31 10:56:29;;;;;;;10.02;2.00;;;;;;;;;;6265576;28;20067;-78
2024/03/31 10:59:30;;;;;;;8.57;2.00;;;;;;;;;;6243681;28;20466;-79
2024/03/31 11:02:33;;;;;;;6.10;1.75;;;;;;;;;;6248095;28;20034;-77
2024/03/31 11:05:33;;;;;;;13.43;2.60;;;;;;;;;;6249741;28;20063;-78
2024/03/31 11:08:34;;;;;;;11.00;2.08;;;;;;;;;;6244532;28;20033;-81
2024/03/31 11:11:35;;;;;;;12.25;2.40;;;;;;;;;;6251517;28;20026;-80
2024/03/31 11:14:36;;;;;;;9.15;2.13;;;;;;;;;;6251161;28;20026;-79
2024/03/31 11:17:36;;;;;;;12.00;2.22;;;;;;;;;;6248868;28;20133;-78
2024/03/31 11:20:42;;;;;;;7.88;1.70;;;;;;;;;;6250265;28;20084;-79
2024/03/31 11:23:43;;;;;;;13.98;2.38;;;;;;;;;;6235591;28;20551;-78
2024/03/31 11:26:43;;;;;;;6.95;2.03;;;;;;;;;;6251064;28;20030;-79
2024/03/31 11:29:43;;;;;;;12.02;2.72;;;;;;;;;;6249583;28;20087;-81
2024/03/31 11:32:44;;;;;;;12.90;2.03;;;;;;;;;;6249112;28;20029;-81
2024/03/31 11:35:45;;;;;;;6.90;1.75;;;;;;;;;;6239789;28;20380;-83
2024/03/31 11:38:45;;;;;;;8.75;1.83;;;;;;;;;;6242702;28;20045;-78
2024/03/31 11:41:46;;;;;;;11.70;2.10;;;;;;;;;;6251144;28;20040;-83
2024/03/31 11:44:46;;;;;;;8.15;1.83;;;;;;;;;;6249434;28;20248;-80
2024/03/31 11:47:46;;;;;;;7.15;1.75;;;;;;;;;;6249575;28;20079;-81
2024/03/31 11:50:46;;;;;;;8.53;2.30;;;;;;;;;;6250744;28;20465;-81
2024/03/31 11:53:47;;;;;;;13.23;2.50;;;;;;;;;;6249852;28;20756;-76
2024/03/31 11:56:47;;;;;;;9.60;2.03;;;;;;;;;;6250375;28;20034;-73
2024/03/31 12:00:05;;;;;;;8.50;1.80;;;;;;;;;;6248383;28;20752;-82
2024/03/31 12:03:07;;;;;;;14.75;2.38;;;;;;;;;;6244191;28;20064;-83
2024/03/31 12:06:07;;;;;;;7.43;2.30;;;;;;;;;;6250328;28;20518;-84
2024/03/31 12:09:08;;;;;;;11.85;2.50;;;;;;;;;;6236394;28;20653;-83
2024/03/31 12:12:08;;;;;;;10.95;2.33;;;;;;;;;;6250564;28;20013;-78
2024/03/31 12:15:09;;;;;;;10.70;2.00;;;;;;;;;;6248775;28;20523;-79
2024/03/31 12:18:10;;;;;;;11.45;2.28;;;;;;;;;;6229947;28;20120;-79
2024/03/31 12:21:10;;;;;;;7.85;1.77;;;;;;;;;;6246391;28;20030;-79
2024/03/31 12:24:10;;;;;;;8.73;1.73;;;;;;;;;;6248242;28;20021;-77
2024/03/31 12:27:11;;;;;;;8.55;2.13;;;;;;;;;;6249840;28;20252;-79
2024/03/31 12:30:11;;;;;;;9.07;2.50;;;;;;;;;;6248817;28;20056;-77
2024/03/31 12:33:11;;;;;;;13.98;2.53;;;;;;;;;;6248481;28;20052;-77
2024/03/31 12:36:12;;;;;;;12.07;2.28;;;;;;;;;;6249990;28;20045;-79
2024/03/31 12:39:12;;;;;;;11.02;2.42;;;;;;;;;;6248925;28;20483;-81
2024/03/31 12:42:13;;;;;;;15.35;2.90;;;;;;;;;;6250214;28;20017;-78
2024/03/31 12:45:20;;;;;;;13.70;2.10;;;;;;;;;;6249535;28;20068;-79
2024/03/31 12:48:21;;;;;;;13.73;2.17;;;;;;;;;;6246729;28;20025;-77
2024/03/31 12:51:22;;;;;;;14.07;2.53;;;;;;;;;;6242542;28;20029;-82
2024/03/31 12:54:23;;;;;;;10.57;2.13;;;;;;;;;;6249018;28;20037;-78
2024/03/31 12:57:23;;;;;;;13.02;2.38;;;;;;;;;;6248025;28;20462;-77
2024/03/31 13:00:23;;;;;;;16.23;2.25;;;;;;;;;;6249701;28;20091;-77
2024/03/31 13:03:23;;;;;;;12.63;2.30;;;;;;;;;;6246677;28;20021;-75
2024/03/31 13:06:24;;;;;;;16.70;2.55;;;;;;;;;;6248951;28;20296;-75
2024/03/31 13:09:24;;;;;;;9.20;2.30;;;;;;;;;;6247915;28;20061;-79
2024/03/31 13:12:24;;;;;;;9.30;2.50;;;;;;;;;;6233299;28;20064;-77
2024/03/31 13:15:25;;;;;;;9.63;2.10;;;;;;;;;;6247432;28;20096;-77
2024/03/31 13:18:25;;;;;;;14.67;2.67;;;;;;;;;;6247740;28;20029;-82
2024/03/31 13:21:25;;;;;;;18.52;2.33;;;;;;;;;;6247054;28;20334;-77
2024/03/31 13:24:28;;;;;;;10.03;2.03;;;;;;;;;;6248002;28;20462;-80
2024/03/31 13:27:28;;;;;;;9.68;2.22;;;;;;;;;;6236838;28;20272;-79
2024/03/31 13:30:34;;;;;;;10.50;2.15;;;;;;;;;;6249016;28;20025;-79
2024/03/31 13:33:35;;;;;;;12.18;2.13;;;;;;;;;;6243958;28;20321;-79
2024/03/31 13:36:35;;;;;;;8.50;1.53;;;;;;;;;;6248270;28;20405;-77
2024/03/31 13:39:35;;;;;;;12.67;2.10;;;;;;;;;;6247362;28;20345;-78
2024/03/31 13:42:35;;;;;;;12.37;2.20;;;;;;;;;;6247754;28;20350;-76
2024/03/31 13:45:36;;;;;;;14.60;2.80;;;;;;;;;;6248527;28;20244;-77
2024/03/31 13:48:36;;;;;;;14.02;2.17;;;;;;;;;;6230149;28;20029;-79
2024/03/31 13:51:36;;;;;;;12.23;2.13;;;;;;;;;;6247695;28;20466;-79
2024/03/31 13:54:37;;;;;;;10.50;2.00;;;;;;;;;;6243110;28;20252;-77
2024/03/31 13:57:37;;;;;;;11.97;1.97;;;;;;;;;;6247471;28;20060;-77
2024/03/31 14:00:37;;;;;;;6.10;1.83;;;;;;;;;;6247249;28;20280;-81
2024/03/31 14:03:37;;;;;;;11.57;2.33;;;;;;;;;;6247130;28;20260;-77
2024/03/31 14:06:37;;;;;;;8.23;2.07;;;;;;;;;;6245257;28;20295;-78
2024/03/31 14:09:38;;;;;;;10.90;2.13;;;;;;;;;;6228093;28;20271;-78
2024/03/31 14:12:40;;;;;;;8.47;2.10;;;;;;;;;;6239970;28;20260;-78
2024/03/31 14:15:41;;;;;;;9.25;1.77;;;;;;;;;;6246075;28;20315;-77
2024/03/31 14:18:41;;;;;;;8.90;1.60;;;;;;;;;;6245336;28;20029;-78
2024/03/31 14:21:41;;;;;;;11.10;1.73;;;;;;;;;;6247654;28;20040;-77
2024/03/31 14:24:42;;;;;;;8.73;1.50;;;;;;;;;;6246228;28;20513;-79
2024/03/31 14:27:43;;;;;;;8.53;1.80;;;;;;;;;;6241421;28;20728;-78
2024/03/31 14:30:43;;;;;;;10.02;2.20;;;;;;;;;;6245078;28;20740;-78
2024/03/31 14:33:43;;;;;;;12.18;2.08;;;;;;;;;;6247240;28;20448;-78
2024/03/31 14:36:43;;;;;;;7.07;1.70;;;;;;;;;;6248242;28;20057;-77
2024/03/31 14:39:44;;;;;;;10.70;1.77;;;;;;;;;;6246824;28;20292;-77
2024/03/31 14:42:44;;;;;;;6.60;1.50;;;;;;;;;;6247105;28;20295;-77
2024/03/31 14:45:45;;;;;;;13.43;1.77;;;;;;;;;;6247913;28;20060;-76
2024/03/31 14:48:45;;;;;;;11.13;2.23;;;;;;;;;;6241720;28;20308;-77
2024/03/31 14:51:46;;;;;;;11.10;2.03;;;;;;;;;;6247186;28;20304;-76
2024/03/31 14:54:46;;;;;;;12.32;2.20;;;;;;;;;;6245695;28;20466;-77
2024/03/31 14:57:46;;;;;;;11.47;2.03;;;;;;;;;;6256522;28;20112;-76
2024/03/31 15:00:46;;;;;;;12.67;2.20;;;;;;;;;;6268423;28;20268;-75
2024/03/31 15:03:47;;;;;;;9.90;1.70;;;;;;;;;;6260463;28;20275;-76
2024/03/31 15:06:47;;;;;;;12.20;2.33;;;;;;;;;;6249709;28;20029;-75
2024/03/31 15:09:47;;;;;;;10.70;2.03;;;;;;;;;;6250252;28;20264;-76
2024/03/31 15:12:47;;;;;;;12.10;2.63;;;;;;;;;;6252130;28;20253;-76
2024/03/31 15:15:48;;;;;;;9.67;1.63;;;;;;;;;;6251521;28;20268;-76
2024/03/31 15:18:48;;;;;;;12.47;2.13;;;;;;;;;;6262612;28;20287;-77
2024/03/31 15:21:48;;;;;;;12.63;2.20;;;;;;;;;;6264894;28;20280;-76
2024/03/31 15:24:49;;;;;;;8.23;2.00;;;;;;;;;;6250034;28;20518;-77
2024/03/31 15:27:49;;;;;;;12.77;2.15;;;;;;;;;;6245675;28;20791;-76
2024/03/31 15:30:53;;;;;;;9.47;1.73;;;;;;;;;;6253969;28;20036;-77
2024/03/31 15:33:53;;;;;;;8.18;1.83;;;;;;;;;;6249834;28;20283;-76
2024/03/31 15:36:53;;;;;;;10.93;2.20;;;;;;;;;;6250860;28;20049;-75
2024/03/31 15:39:54;;;;;;;8.33;1.87;;;;;;;;;;6250534;28;20112;-76
2024/03/31 15:42:54;;;;;;;7.82;1.73;;;;;;;;;;6249904;28;20748;-75
2024/03/31 15:45:55;;;;;;;10.70;2.10;;;;;;;;;;6261728;28;20033;-76
2024/03/31 15:48:55;;;;;;;7.05;1.33;;;;;;;;;;6273789;28;20025;-78
2024/03/31 15:51:55;;;;;;;6.40;1.50;;;;;;;;;;6258194;28;20028;-80
2024/03/31 15:54:56;;;;;;;9.93;1.87;;;;;;;;;;6248340;28;20279;-77
2024/03/31 15:57:56;;;;;;;14.47;1.83;;;;;;;;;;6250970;28;20287;-81
2024/03/31 16:00:56;;;;;;;6.93;1.50;;;;;;;;;;6273211;28;20276;-78
2024/03/31 16:03:57;;;;;;;9.03;1.67;;;;;;;;;;6266536;28;20259;-80
2024/03/31 16:06:57;;;;;;;6.05;1.67;;;;;;;;;;6272310;28;20280;-82
2024/03/31 16:09:57;;;;;;;7.63;1.43;;;;;;;;;;6257801;28;20459;-81
2024/03/31 16:12:57;;;;;;;7.83;1.63;;;;;;;;;;6242774;28;20252;-81
2024/03/31 16:15:58;;;;;;;9.03;1.50;;;;;;;;;;6244320;28;20272;-78
2024/03/31 16:18:58;;;;;;;8.90;1.85;;;;;;;;;;6237403;28;20280;-78
2024/03/31 16:21:59;;;;;;;8.07;1.50;;;;;;;;;;6248882;28;20036;-78
2024/03/31 16:25:00;;;;;;;4.53;1.20;;;;;;;;;;6249554;28;20026;-78
2024/03/31 16:28:00;;;;;;;5.13;1.40;;;;;;;;;;6241392;28;20397;-80
2024/03/31 16:31:00;;;;;;;5.73;1.60;;;;;;;;;;6250243;28;20040;-81
2024/03/31 16:34:00;;;;;;;6.70;1.23;;;;;;;;;;6248723;28;20253;-80
2024/03/31 16:37:01;;;;;;;7.20;1.20;;;;;;;;;;6249068;28;20049;-83
2024/03/31 16:40:01;;;;;;;9.38;1.67;;;;;;;;;;6248877;28;20276;-85
2024/03/31 16:43:01;;;;;;;8.10;1.57;;;;;;;;;;6250025;28;20521;-80
2024/03/31 16:46:01;;;;;;;6.75;1.35;;;;;;;;;;6248358;28;20842;-82
2024/03/31 16:49:02;;;;;;;4.82;1.23;;;;;;;;;;6247911;28;20021;-81
2024/03/31 16:52:03;;;;;;;4.60;1.20;;;;;;;;;;6244997;28;20109;-76
2024/03/31 16:55:03;;;;;;;9.23;1.60;;;;;;;;;;6249341;28;20029;-80
2024/03/31 16:58:04;;;;;;;6.05;1.50;;;;;;;;;;6247906;28;20359;-82
2024/03/31 17:01:04;;;;;;;5.40;1.35;;;;;;;;;;6249623;28;20108;-79
2024/03/31 17:04:04;;;;;;;6.87;1.40;;;;;;;;;;6246561;28;20369;-81
2024/03/31 17:07:05;;;;;;;8.52;1.30;;;;;;;;;;6246855;28;20606;-78
2024/03/31 17:10:05;;;;;;;4.75;1.25;;;;;;;;;;6248916;28;20018;-77
2024/03/31 17:13:05;;;;;;;5.50;1.23;;;;;;;;;;6245655;28;20029;-75
2024/03/31 17:16:06;;;;;;;4.07;1.45;;;;;;;;;;6247235;28;20032;-77
2024/03/31 17:19:06;;;;;;;5.57;1.48;;;;;;;;;;6246102;28;20029;-69
2024/03/31 17:22:06;;;;;;;6.67;1.67;;;;;;;;;;6247136;28;20026;-68
2024/03/31 17:25:07;;;;;;;6.10;1.10;;;;;;;;;;6238946;28;20249;-74
2024/03/31 17:28:07;;;;;;;5.53;1.38;;;;;;;;;;6247989;28;20025;-74
2024/03/31 17:31:07;;;;;;;4.38;1.27;;;;;;;;;;6247994;28;20113;-74
2024/03/31 17:34:08;;;;;;;6.93;1.37;;;;;;;;;;6246631;28;20010;-75
2024/03/31 17:37:08;;;;;;;8.53;1.60;;;;;;;;;;6245908;28;20351;-75
2024/03/31 17:40:09;;;;;;;3.55;1.13;;;;;;;;;;6244207;28;20315;-74
2024/03/31 17:43:09;;;;;;;8.32;1.40;;;;;;;;;;6232110;28;20496;-77
2024/03/31 17:46:11;;;;;;;4.93;1.33;;;;;;;;;;6230987;28;20068;-79
2024/03/31 17:49:11;;;;;;;7.00;1.23;;;;;;;;;;6227765;28;20318;-78
2024/03/31 17:52:11;;;;;;;4.55;1.27;;;;;;;;;;6230107;28;20091;-77
2024/03/31 17:55:11;;;;;;;2.67;1.10;;;;;;;;;;6233586;28;20029;-78
2024/03/31 17:58:13;;;;;;;4.55;1.20;;;;;;;;;;6233755;28;20036;-77
2024/03/31 18:01:18;;;;;;;6.10;1.17;;;;;;;;;;6230632;28;20048;-77
2024/03/31 18:04:18;;;;;;;3.10;1.20;;;;;;;;;;6235806;28;20013;-77
2024/03/31 18:07:18;;;;;;;;;;;;;;;;;;6247573;28;20453;-77